createdAt,value
2017-11-20T00:00:34.494Z,4.30
2017-11-20T00:03:02.140Z,4.30
2017-11-20T00:05:29.710Z,4.40
2017-11-20T00:07:57.236Z,4.40
2017-11-20T00:10:25.523Z,4.40
2017-11-20T00:12:53.919Z,4.40
2017-11-20T00:15:21.560Z,4.30
2017-11-20T00:17:49.942Z,4.30
2017-11-20T00:20:18.252Z,4.30
2017-11-20T00:22:45.784Z,4.20
2017-11-20T00:25:14.080Z,4.20
2017-11-20T00:27:41.605Z,4.20
2017-11-20T00:30:09.898Z,4.10
2017-11-20T00:32:38.297Z,4.00
2017-11-20T00:35:05.868Z,4.00
2017-11-20T00:37:33.429Z,4.00
2017-11-20T00:40:00.960Z,4.00
2017-11-20T00:42:28.481Z,4.00
2017-11-20T00:44:56.020Z,4.10
2017-11-20T00:47:23.559Z,4.00
2017-11-20T00:49:51.125Z,4.00
2017-11-20T00:52:18.657Z,4.00
2017-11-20T00:54:46.241Z,4.10
2017-11-20T00:57:13.801Z,4.10
2017-11-20T00:59:41.363Z,4.10
2017-11-20T01:02:08.872Z,4.10
2017-11-20T01:04:36.482Z,4.10
2017-11-20T01:07:04.043Z,4.10
2017-11-20T01:09:31.616Z,4.00
2017-11-20T01:12:00.136Z,4.00
2017-11-20T01:14:27.867Z,4.00
2017-11-20T01:16:55.433Z,4.00
2017-11-20T01:19:23.067Z,4.00
2017-11-20T01:21:50.637Z,4.00
2017-11-20T01:24:18.299Z,3.90
2017-11-20T01:26:45.964Z,3.90
2017-11-20T01:29:13.532Z,3.80
2017-11-20T01:31:41.339Z,3.80
2017-11-20T01:34:10.099Z,3.80
2017-11-20T01:36:37.652Z,3.70
2017-11-20T01:39:05.246Z,3.80
2017-11-20T01:41:32.827Z,3.80
2017-11-20T01:44:00.437Z,3.80
2017-11-20T01:46:27.988Z,3.70
2017-11-20T01:48:55.543Z,3.70
2017-11-20T01:51:23.104Z,3.60
2017-11-20T01:53:50.619Z,3.60
2017-11-20T01:56:18.156Z,3.50
2017-11-20T01:58:45.684Z,3.50
2017-11-20T02:01:13.217Z,3.50
2017-11-20T02:03:40.809Z,3.50
2017-11-20T02:06:08.368Z,3.40
2017-11-20T02:08:35.875Z,3.40
2017-11-20T02:11:03.414Z,3.40
2017-11-20T02:13:30.937Z,3.40
2017-11-20T02:15:58.531Z,3.40
2017-11-20T02:18:26.049Z,3.40
2017-11-20T02:20:53.642Z,3.60
2017-11-20T02:23:21.196Z,3.50
2017-11-20T02:25:48.739Z,3.50
2017-11-20T02:28:16.271Z,3.50
2017-11-20T02:30:43.882Z,3.40
2017-11-20T02:33:11.433Z,3.40
2017-11-20T02:35:38.950Z,3.40
2017-11-20T02:38:07.259Z,3.30
2017-11-20T02:40:34.800Z,3.30
2017-11-20T02:43:03.116Z,3.30
2017-11-20T02:45:30.680Z,3.30
2017-11-20T02:47:58.247Z,3.40
2017-11-20T02:50:25.788Z,3.40
2017-11-20T02:52:53.326Z,3.40
2017-11-20T02:55:21.620Z,3.40
2017-11-20T02:57:49.181Z,3.30
2017-11-20T03:00:16.760Z,3.40
2017-11-20T03:02:44.332Z,3.40
2017-11-20T03:05:11.874Z,3.50
2017-11-20T03:07:39.942Z,3.50
2017-11-20T03:10:07.513Z,3.50
2017-11-20T03:12:35.129Z,3.60
2017-11-20T03:15:03.455Z,3.80
2017-11-20T03:17:31.005Z,3.80
2017-11-20T03:19:58.564Z,3.80
2017-11-20T03:22:26.116Z,3.90
2017-11-20T03:24:53.700Z,4.00
2017-11-20T03:27:21.229Z,4.00
2017-11-20T03:29:48.806Z,4.00
2017-11-20T03:32:16.341Z,4.10
2017-11-20T03:34:44.660Z,4.20
2017-11-20T03:37:12.182Z,4.10
2017-11-20T03:39:40.590Z,4.20
2017-11-20T03:42:08.169Z,4.20
2017-11-20T03:44:35.830Z,4.20
2017-11-20T03:47:03.368Z,4.20
2017-11-20T03:49:30.940Z,4.30
2017-11-20T03:51:58.489Z,4.30
2017-11-20T03:54:26.079Z,4.40
2017-11-20T03:56:53.600Z,4.40
2017-11-20T03:59:21.143Z,4.40
2017-11-20T04:01:49.459Z,4.30
2017-11-20T04:04:17.088Z,4.30
2017-11-20T04:06:45.393Z,4.40
2017-11-20T04:09:12.960Z,4.30
2017-11-20T04:11:40.517Z,4.40
2017-11-20T04:14:08.076Z,4.40
2017-11-20T04:16:35.646Z,4.40
2017-11-20T04:19:03.185Z,4.40
2017-11-20T04:21:31.498Z,4.40
2017-11-20T04:23:59.031Z,4.40
2017-11-20T04:26:26.560Z,4.40
2017-11-20T04:28:54.896Z,4.40
2017-11-20T04:31:22.417Z,4.40
2017-11-20T04:33:50.002Z,4.40
2017-11-20T04:36:17.568Z,4.40
2017-11-20T04:38:45.116Z,4.40
2017-11-20T04:41:12.693Z,4.40
2017-11-20T04:43:40.204Z,4.40
2017-11-20T04:46:08.521Z,4.50
2017-11-20T04:48:36.060Z,4.40
2017-11-20T04:51:03.623Z,4.50
2017-11-20T04:53:31.153Z,4.50
2017-11-20T04:55:58.756Z,4.60
2017-11-20T04:58:26.280Z,4.60
2017-11-20T05:00:53.808Z,4.50
2017-11-20T05:03:21.331Z,4.50
2017-11-20T05:05:48.981Z,4.60
2017-11-20T05:08:16.559Z,4.50
2017-11-20T05:10:44.098Z,4.50
2017-11-20T05:13:12.424Z,4.50
2017-11-20T05:15:39.962Z,4.50
2017-11-20T05:18:07.531Z,4.60
2017-11-20T05:20:35.071Z,4.60
2017-11-20T05:23:02.595Z,4.60
2017-11-20T05:25:30.127Z,4.60
2017-11-20T05:27:57.652Z,4.60
2017-11-20T05:30:25.173Z,4.70
2017-11-20T05:32:52.784Z,4.60
2017-11-20T05:35:24.144Z,4.60
2017-11-20T05:37:51.675Z,4.60
2017-11-20T05:40:19.980Z,4.70
2017-11-20T05:42:47.532Z,4.70
2017-11-20T05:45:15.040Z,4.70
2017-11-20T05:47:42.648Z,4.60
2017-11-20T05:50:10.172Z,4.70
2017-11-20T05:52:37.828Z,4.60
2017-11-20T05:55:05.453Z,4.70
2017-11-20T05:57:32.977Z,4.70
2017-11-20T06:00:00.565Z,4.70
2017-11-20T06:02:28.128Z,4.70
2017-11-20T06:04:55.698Z,4.70
2017-11-20T06:07:23.247Z,4.60
2017-11-20T06:09:50.756Z,4.70
2017-11-20T06:12:18.360Z,4.70
2017-11-20T06:14:45.884Z,4.70
2017-11-20T06:17:13.489Z,4.70
2017-11-20T06:19:41.046Z,4.70
2017-11-20T06:22:08.576Z,4.70
2017-11-20T06:24:36.893Z,4.70
2017-11-20T06:27:04.446Z,4.70
2017-11-20T06:29:31.974Z,4.70
2017-11-20T06:32:00.268Z,4.70
2017-11-20T06:34:27.845Z,4.60
2017-11-20T06:36:55.405Z,4.70
2017-11-20T06:39:22.964Z,4.70
2017-11-20T06:41:50.522Z,4.70
2017-11-20T06:44:18.050Z,4.70
2017-11-20T06:46:46.350Z,4.70
2017-11-20T06:49:13.934Z,4.70
2017-11-20T06:51:41.525Z,4.70
2017-11-20T06:54:09.093Z,4.70
2017-11-20T06:56:36.615Z,4.80
2017-11-20T06:59:04.277Z,4.80
2017-11-20T07:01:31.795Z,4.70
2017-11-20T07:04:00.089Z,4.80
2017-11-20T07:06:28.393Z,4.80
2017-11-20T07:08:55.912Z,4.80
2017-11-20T07:11:24.219Z,4.80
2017-11-20T07:13:51.784Z,4.80
2017-11-20T07:16:19.318Z,4.80
2017-11-20T07:18:47.639Z,4.70
2017-11-20T07:21:15.168Z,4.70
2017-11-20T07:23:42.806Z,4.80
2017-11-20T07:26:23.045Z,4.80
2017-11-20T07:29:02.542Z,4.80
2017-11-20T07:31:30.082Z,4.80
2017-11-20T07:34:10.312Z,4.80
2017-11-20T07:36:49.879Z,4.80
2017-11-20T07:39:30.024Z,4.80
2017-11-20T07:41:57.625Z,4.80
2017-11-20T07:44:25.190Z,4.80
2017-11-20T07:46:52.728Z,4.80
2017-11-20T07:49:21.020Z,4.80
2017-11-20T07:51:48.553Z,4.80
2017-11-20T07:54:16.829Z,4.90
2017-11-20T07:56:45.164Z,4.90
2017-11-20T07:59:12.701Z,4.90
2017-11-20T08:01:40.239Z,4.90
2017-11-20T08:04:08.512Z,4.90
2017-11-20T08:06:36.814Z,4.90
2017-11-20T08:09:04.367Z,4.90
2017-11-20T08:11:31.943Z,4.90
2017-11-20T08:13:59.458Z,4.90
2017-11-20T08:16:27.739Z,5.00
2017-11-20T08:18:56.041Z,5.00
2017-11-20T08:21:23.552Z,5.00
2017-11-20T08:23:51.088Z,5.10
2017-11-20T08:26:18.636Z,5.00
2017-11-20T08:28:46.163Z,5.00
2017-11-20T08:31:14.482Z,5.10
2017-11-20T08:33:42.073Z,5.00
2017-11-20T08:36:09.581Z,5.10
2017-11-20T08:38:37.130Z,5.10
2017-11-20T08:41:05.432Z,5.20
2017-11-20T08:43:32.959Z,5.20
2017-11-20T08:46:00.487Z,5.30
2017-11-20T08:48:28.040Z,5.20
2017-11-20T08:50:55.564Z,5.30
2017-11-20T08:53:23.125Z,5.30
2017-11-20T08:55:50.663Z,5.40
2017-11-20T08:58:18.985Z,5.40
2017-11-20T09:00:46.520Z,5.40
2017-11-20T09:03:14.116Z,5.40
2017-11-20T09:05:41.672Z,5.50
2017-11-20T09:08:09.191Z,5.50
2017-11-20T09:10:37.511Z,5.50
2017-11-20T09:13:05.048Z,5.50
2017-11-20T09:15:32.604Z,5.50
2017-11-20T09:18:00.136Z,5.50
2017-11-20T09:20:28.448Z,5.50
2017-11-20T09:22:55.989Z,5.50
2017-11-20T09:25:24.304Z,5.60
2017-11-20T09:27:51.828Z,5.60
2017-11-20T09:30:20.149Z,5.70
2017-11-20T09:32:47.677Z,5.70
2017-11-20T09:35:21.152Z,5.70
2017-11-20T09:37:49.442Z,5.70
2017-11-20T09:40:17.758Z,5.60
2017-11-20T09:42:45.287Z,5.60
2017-11-20T09:45:12.870Z,5.50
2017-11-20T09:47:40.424Z,5.60
2017-11-20T09:50:07.991Z,5.50
2017-11-20T09:52:35.540Z,5.50
2017-11-20T09:55:03.112Z,5.50
2017-11-20T09:57:30.664Z,5.40
2017-11-20T09:59:58.228Z,5.40
2017-11-20T10:02:25.775Z,5.30
2017-11-20T10:04:53.352Z,5.30
2017-11-20T10:07:20.915Z,5.30
2017-11-20T10:09:48.464Z,5.40
2017-11-20T10:12:16.006Z,5.40
2017-11-20T10:14:44.308Z,5.40
2017-11-20T10:17:11.856Z,5.30
2017-11-20T10:19:39.425Z,5.40
2017-11-20T10:22:06.985Z,5.50
2017-11-20T10:24:34.507Z,5.60
2017-11-20T10:27:02.161Z,5.70
2017-11-20T10:29:29.707Z,5.70
2017-11-20T10:31:57.289Z,5.80
2017-11-20T10:34:24.826Z,5.80
2017-11-20T10:36:52.452Z,5.80
2017-11-20T10:39:19.977Z,5.80
2017-11-20T10:41:48.278Z,5.90
2017-11-20T10:44:15.819Z,5.90
2017-11-20T10:46:44.147Z,5.90
2017-11-20T10:49:11.697Z,5.90
2017-11-20T10:51:40.088Z,6.00
2017-11-20T10:54:07.626Z,5.90
2017-11-20T10:56:35.161Z,5.90
2017-11-20T10:59:03.481Z,5.80
2017-11-20T11:01:31.013Z,5.80
2017-11-20T11:03:58.579Z,5.90
2017-11-20T11:06:26.256Z,5.90
2017-11-20T11:08:53.792Z,5.80
2017-11-20T11:11:22.104Z,5.80
2017-11-20T11:13:49.646Z,5.80
2017-11-20T11:16:17.167Z,5.80
2017-11-20T11:18:44.776Z,5.70
2017-11-20T11:21:12.308Z,5.60
2017-11-20T11:23:40.637Z,5.50
2017-11-20T11:26:08.168Z,5.50
2017-11-20T11:28:35.704Z,5.50
2017-11-20T11:31:04.014Z,5.50
2017-11-20T11:33:31.682Z,5.50
2017-11-20T11:35:59.249Z,5.30
2017-11-20T11:38:26.776Z,5.30
2017-11-20T11:40:55.065Z,5.20
2017-11-20T11:43:22.626Z,5.20
2017-11-20T11:45:50.217Z,5.20
2017-11-20T11:48:17.747Z,5.30
2017-11-20T11:50:46.135Z,5.30
2017-11-20T11:53:13.791Z,5.20
2017-11-20T11:55:41.320Z,5.20
2017-11-20T11:58:08.939Z,5.20
2017-11-20T12:00:36.485Z,5.10
2017-11-20T12:03:04.020Z,5.10
2017-11-20T12:05:32.544Z,5.20
2017-11-20T12:08:00.083Z,5.20
2017-11-20T12:10:27.639Z,5.20
2017-11-20T12:12:55.909Z,5.20
2017-11-20T12:15:23.484Z,5.20
2017-11-20T12:17:51.052Z,5.10
2017-11-20T12:20:18.599Z,5.20
2017-11-20T12:22:46.115Z,5.20
2017-11-20T12:25:13.642Z,5.20
2017-11-20T12:27:41.213Z,5.20
2017-11-20T12:30:08.788Z,5.20
2017-11-20T12:32:38.059Z,5.20
2017-11-20T12:35:05.593Z,5.20
2017-11-20T12:37:33.170Z,5.20
2017-11-20T12:40:00.736Z,5.10
2017-11-20T12:42:28.312Z,5.10
2017-11-20T12:44:55.822Z,5.00
2017-11-20T12:47:24.124Z,5.00
2017-11-20T12:49:51.636Z,5.00
2017-11-20T12:52:19.172Z,4.90
2017-11-20T12:54:46.689Z,5.00
2017-11-20T12:57:14.985Z,5.00
2017-11-20T12:59:42.575Z,5.00
2017-11-20T13:02:10.183Z,5.00
2017-11-20T13:04:38.467Z,5.00
2017-11-20T13:07:06.759Z,5.00
2017-11-20T13:09:34.266Z,5.00
2017-11-20T13:12:02.005Z,5.00
2017-11-20T13:14:29.537Z,5.00
2017-11-20T13:16:57.136Z,4.90
2017-11-20T13:19:24.664Z,4.90
2017-11-20T13:21:52.201Z,4.90
2017-11-20T13:24:20.500Z,4.90
2017-11-20T13:26:48.038Z,4.90
2017-11-20T13:29:16.344Z,4.90
2017-11-20T13:31:43.889Z,4.90
2017-11-20T13:34:12.179Z,4.90
2017-11-20T13:36:39.741Z,4.80
2017-11-20T13:39:07.306Z,4.90
2017-11-20T13:41:34.844Z,4.90
2017-11-20T13:44:03.232Z,4.90
2017-11-20T13:46:31.530Z,4.90
2017-11-20T13:48:59.076Z,4.90
2017-11-20T13:51:26.584Z,4.90
2017-11-20T13:53:54.110Z,4.80
2017-11-20T13:56:21.627Z,4.80
2017-11-20T13:58:49.158Z,4.80
2017-11-20T14:01:19.478Z,4.80
2017-11-20T14:03:47.007Z,4.70
2017-11-20T14:06:18.193Z,4.70
2017-11-20T14:08:45.827Z,4.80
2017-11-20T14:11:13.374Z,4.70
2017-11-20T14:13:40.943Z,4.70
2017-11-20T14:16:08.468Z,4.70
2017-11-20T14:18:36.754Z,4.70
2017-11-20T14:21:05.047Z,4.70
2017-11-20T14:23:32.613Z,4.70
2017-11-20T14:26:00.143Z,4.70
2017-11-20T14:28:28.463Z,4.40
2017-11-20T14:30:56.017Z,4.40
2017-11-20T14:33:23.652Z,4.50
2017-11-20T14:35:52.069Z,4.40
2017-11-20T14:38:19.617Z,4.40
2017-11-20T14:40:47.172Z,4.50
2017-11-20T14:43:14.696Z,4.40
2017-11-20T14:45:42.220Z,4.40
2017-11-20T14:48:20.368Z,4.40
2017-11-20T14:50:47.896Z,4.40
2017-11-20T15:06:43.511Z,4.30
2017-11-20T15:09:11.012Z,4.30
2017-11-20T15:11:39.310Z,4.20
2017-11-20T15:14:06.832Z,4.20
2017-11-20T15:16:34.368Z,4.30
2017-11-20T15:19:01.907Z,4.20
2017-11-20T15:21:29.454Z,4.20
2017-11-20T15:23:56.979Z,4.20
2017-11-20T15:26:24.580Z,4.10
2017-11-20T15:28:52.137Z,4.10
2017-11-20T15:31:19.701Z,4.20
2017-11-20T15:33:47.226Z,4.20
2017-11-20T15:36:16.504Z,4.20
2017-11-20T15:38:44.028Z,4.20
2017-11-20T15:41:11.543Z,4.20
2017-11-20T15:43:39.168Z,4.10
2017-11-20T15:46:07.536Z,4.20
2017-11-20T15:48:35.185Z,4.20
2017-11-20T15:51:02.696Z,4.20
2017-11-20T15:53:30.228Z,4.10
2017-11-20T15:55:57.789Z,4.20
2017-11-20T15:58:25.332Z,4.10
2017-11-20T16:00:52.836Z,4.20
2017-11-20T16:03:20.444Z,4.10
2017-11-20T16:05:47.956Z,4.10
2017-11-20T16:08:15.487Z,4.00
2017-11-20T16:10:42.991Z,4.10
2017-11-20T16:13:10.524Z,4.10
2017-11-20T16:15:38.028Z,4.10
2017-11-20T16:18:05.567Z,4.00
2017-11-20T16:20:33.085Z,4.00
2017-11-20T16:23:00.726Z,4.00
2017-11-20T16:25:28.281Z,4.00
2017-11-20T16:27:55.811Z,3.90
2017-11-20T16:30:24.132Z,4.00
2017-11-20T16:32:51.693Z,4.00
2017-11-20T16:35:19.252Z,3.90
2017-11-20T16:37:46.763Z,3.90
2017-11-20T16:40:14.298Z,3.90
2017-11-20T16:42:41.832Z,3.90
2017-11-20T16:45:09.724Z,3.90
2017-11-20T16:47:37.236Z,3.90
2017-11-20T16:50:05.551Z,3.90
2017-11-20T16:52:33.116Z,3.90
2017-11-20T16:55:00.653Z,4.00
2017-11-20T16:57:40.085Z,4.00
2017-11-20T17:00:19.432Z,3.90
2017-11-20T17:03:11.751Z,4.00
2017-11-20T17:05:40.143Z,4.00
2017-11-20T17:08:07.727Z,4.00
2017-11-20T17:10:35.378Z,3.90
2017-11-20T17:13:02.941Z,3.90
2017-11-20T17:15:30.480Z,3.90
2017-11-20T17:17:58.756Z,3.90
2017-11-20T17:20:26.342Z,3.90
2017-11-20T17:22:53.902Z,3.90
2017-11-20T17:25:21.456Z,3.90
2017-11-20T17:27:49.000Z,3.90
2017-11-20T17:30:16.596Z,4.00
2017-11-20T17:32:44.149Z,4.00
2017-11-20T17:35:11.712Z,4.00
2017-11-20T17:37:39.224Z,3.90
2017-11-20T17:40:06.832Z,4.00
2017-11-20T17:42:34.368Z,4.00
2017-11-20T17:45:01.945Z,4.00
2017-11-20T17:47:29.472Z,4.00
2017-11-20T17:49:57.793Z,4.00
2017-11-20T17:52:25.363Z,4.00
2017-11-20T17:54:52.892Z,4.00
2017-11-20T17:57:20.445Z,4.00
2017-11-20T17:59:48.015Z,4.10
2017-11-20T18:02:15.562Z,4.10
2017-11-20T18:04:43.849Z,4.00
2017-11-20T18:07:11.401Z,4.00
2017-11-20T18:09:38.994Z,4.00
2017-11-20T18:12:06.539Z,4.00
2017-11-20T18:14:34.189Z,4.10
2017-11-20T18:17:02.600Z,4.10
2017-11-20T18:19:30.155Z,4.00
2017-11-20T18:21:57.742Z,4.00
2017-11-20T18:24:25.377Z,4.00
2017-11-20T18:26:52.907Z,4.00
2017-11-20T18:29:20.501Z,4.00
2017-11-20T18:31:48.287Z,4.00
2017-11-20T18:34:16.025Z,4.00
2017-11-20T18:36:43.542Z,4.00
2017-11-20T18:39:11.844Z,4.00
2017-11-20T18:41:39.360Z,4.00
2017-11-20T18:44:06.903Z,4.00
2017-11-20T18:46:34.467Z,4.00
2017-11-20T18:49:02.050Z,4.00
2017-11-20T18:51:29.567Z,4.00
2017-11-20T18:53:57.092Z,3.90
2017-11-20T18:56:25.413Z,4.00
2017-11-20T18:58:52.933Z,4.00
2017-11-20T19:01:33.222Z,4.00
2017-11-20T19:04:12.679Z,4.00
2017-11-20T19:06:52.200Z,4.00
2017-11-20T19:09:19.767Z,4.00
2017-11-20T19:11:47.323Z,3.90
2017-11-20T19:14:14.888Z,4.00
2017-11-20T19:16:42.455Z,4.00
2017-11-20T19:19:09.996Z,4.00
2017-11-20T19:21:37.506Z,4.00
2017-11-20T19:24:05.025Z,4.00
2017-11-20T19:26:32.568Z,4.00
2017-11-20T19:29:00.087Z,4.00
2017-11-20T19:31:27.641Z,4.00
2017-11-20T19:33:55.155Z,3.90
2017-11-20T19:36:22.695Z,4.00
2017-11-20T19:38:50.996Z,4.00
2017-11-20T19:41:18.580Z,4.00
2017-11-20T19:43:46.141Z,4.00
2017-11-20T19:46:13.722Z,4.00
2017-11-20T19:48:41.247Z,4.00
2017-11-20T19:51:08.826Z,4.00
2017-11-20T19:53:36.416Z,4.00
2017-11-20T19:56:05.496Z,4.00
2017-11-20T19:58:33.007Z,4.10
2017-11-20T20:01:01.343Z,4.10
2017-11-20T20:03:29.758Z,4.10
2017-11-20T20:05:57.313Z,4.10
2017-11-20T20:08:25.600Z,4.10
2017-11-20T20:10:54.031Z,4.10
2017-11-20T20:13:33.354Z,4.10
2017-11-20T20:16:12.727Z,4.10
2017-11-20T20:18:40.348Z,4.10
2017-11-20T20:21:07.906Z,4.10
2017-11-20T20:23:35.460Z,4.10
2017-11-20T20:26:02.967Z,4.10
2017-11-20T20:28:30.581Z,4.10
2017-11-20T20:30:58.160Z,4.10
2017-11-20T20:33:26.519Z,4.20
2017-11-20T20:35:54.089Z,4.20
2017-11-20T20:38:21.645Z,4.20
2017-11-20T20:40:49.221Z,4.20
2017-11-20T20:43:16.772Z,4.20
2017-11-20T20:45:44.353Z,4.20
2017-11-20T20:48:11.986Z,4.20
2017-11-20T20:50:39.551Z,4.20
2017-11-20T20:53:07.165Z,4.20
2017-11-20T20:55:34.748Z,4.20
2017-11-20T20:58:03.060Z,4.20
2017-11-20T21:00:30.603Z,4.20
2017-11-20T21:02:58.150Z,4.20
2017-11-20T21:05:26.463Z,4.30
2017-11-20T21:07:54.027Z,4.30
2017-11-20T21:10:27.640Z,4.30
2017-11-20T21:12:55.275Z,4.30
2017-11-20T21:15:22.804Z,4.30
2017-11-20T21:17:51.099Z,4.40
2017-11-20T21:20:18.693Z,4.40
2017-11-20T21:22:46.238Z,4.30
2017-11-20T21:25:13.793Z,4.40
2017-11-20T21:27:41.373Z,4.40
2017-11-20T21:30:08.924Z,4.40
2017-11-20T21:32:36.482Z,4.40
2017-11-20T21:35:04.072Z,4.40
2017-11-20T21:37:31.597Z,4.40
2017-11-20T21:39:59.128Z,4.50
2017-11-20T21:42:27.438Z,4.50
2017-11-20T21:44:55.006Z,4.50
2017-11-20T21:50:16.628Z,4.50
2017-11-20T21:52:44.167Z,4.50
2017-11-20T21:55:12.464Z,4.50
2017-11-20T21:57:40.053Z,4.50
2017-11-20T22:00:07.603Z,4.50
2017-11-20T22:02:35.132Z,4.50
2017-11-20T22:05:03.512Z,4.50
2017-11-20T22:07:31.845Z,4.50
2017-11-20T22:09:59.571Z,4.50
2017-11-20T22:12:39.167Z,4.50
2017-11-20T22:15:06.717Z,4.50
2017-11-20T22:17:34.235Z,4.50
2017-11-20T22:20:02.519Z,4.60
2017-11-20T22:22:30.071Z,4.50
2017-11-20T22:24:58.343Z,4.60
2017-11-20T22:27:26.734Z,4.60
2017-11-20T22:29:54.300Z,4.60
2017-11-20T22:32:21.859Z,4.60
2017-11-20T22:34:49.429Z,4.60
2017-11-20T22:37:16.991Z,4.60
2017-11-20T22:39:44.584Z,4.60
2017-11-20T22:42:12.201Z,4.60
2017-11-20T22:44:39.716Z,4.60
2017-11-20T22:47:07.236Z,4.60
2017-11-20T22:49:34.739Z,4.70
2017-11-20T22:52:02.351Z,4.70
2017-11-20T22:54:29.860Z,4.70
2017-11-20T22:56:57.391Z,4.70
2017-11-20T22:59:24.924Z,4.70
2017-11-20T23:01:52.492Z,4.70
2017-11-20T23:04:20.016Z,4.70
2017-11-20T23:06:48.383Z,4.70
2017-11-20T23:09:15.907Z,4.70
2017-11-20T23:11:43.444Z,4.70
2017-11-20T23:14:11.008Z,4.70
2017-11-20T23:16:38.563Z,4.70
2017-11-20T23:19:06.126Z,4.70
2017-11-20T23:21:33.623Z,4.70
2017-11-20T23:24:01.149Z,4.80
2017-11-20T23:26:28.662Z,4.80
2017-11-20T23:28:56.184Z,4.80
2017-11-20T23:31:23.725Z,4.80
2017-11-20T23:33:51.251Z,4.80
2017-11-20T23:36:19.456Z,4.80
2017-11-20T23:38:47.019Z,4.80
2017-11-20T23:41:14.585Z,4.80
2017-11-20T23:43:42.087Z,4.80
2017-11-20T23:46:09.701Z,4.80
2017-11-20T23:48:37.204Z,4.80
2017-11-20T23:51:04.727Z,4.80
2017-11-20T23:53:33.709Z,4.80
2017-11-20T23:56:01.239Z,4.90
2017-11-20T23:58:28.755Z,4.90
